Time;durP1;ratioP1;P1;durP2;ratioP2;P2;SDS_P1;SDS_P2;PMS_P1;PMS_P2;Temp;Humidity;BMP_temperature;BMP_pressure;BME280_temperature;BME280_humidity;BME280_pressure;Samples;Min_cycle;Max_cycle;Signal;HPM_P1;HPM_P2
2022/11/23 00:00:01;;;;;;;5.70;3.43;;;4.90;95.50;;;;;;5098865;28;20208;-41
2022/11/23 00:02:26;;;;;;;4.77;2.70;;;4.90;95.50;;;;;;5099076;28;20209;-42
2022/11/23 00:04:52;;;;;;;4.00;3.00;;;4.80;95.50;;;;;;5098356;28;20625;-46
2022/11/23 00:07:18;;;;;;;3.93;2.63;;;4.80;95.50;;;;;;5098994;28;20536;-44
2022/11/23 00:09:43;;;;;;;7.30;2.70;;;4.80;95.50;;;;;;5080639;28;20457;-42
2022/11/23 00:12:09;;;;;;;5.03;2.80;;;4.80;95.60;;;;;;5097880;28;20187;-42
2022/11/23 00:14:35;;;;;;;4.43;2.30;;;4.80;95.60;;;;;;5098669;28;20226;-43
2022/11/23 00:17:01;;;;;;;5.00;2.53;;;4.80;95.60;;;;;;5096637;28;20543;-42
2022/11/23 00:19:26;;;;;;;4.73;2.90;;;4.80;95.90;;;;;;5097353;28;20222;-42
2022/11/23 00:21:52;;;;;;;5.20;2.50;;;4.80;95.60;;;;;;5097332;28;20176;-41
2022/11/23 00:24:17;;;;;;;4.23;2.20;;;4.80;95.60;;;;;;5096592;28;20252;-43
2022/11/23 00:26:43;;;;;;;3.10;2.10;;;4.70;95.50;;;;;;5078873;28;20169;-42
2022/11/23 00:29:08;;;;;;;4.20;2.40;;;4.70;95.50;;;;;;5097306;28;20172;-44
2022/11/23 00:31:34;;;;;;;3.03;2.20;;;4.70;95.50;;;;;;5098331;28;20180;-45
2022/11/23 00:34:00;;;;;;;7.83;2.90;;;4.70;95.50;;;;;;5098532;28;20268;-43
2022/11/23 00:36:26;;;;;;;2.70;1.80;;;4.70;95.50;;;;;;5098510;28;20176;-46
2022/11/23 00:38:53;;;;;;;4.23;2.17;;;4.70;95.60;;;;;;5098466;28;20173;-44
2022/11/23 00:41:23;;;;;;;3.87;2.20;;;4.70;95.60;;;;;;5098371;28;20539;-42
2022/11/23 00:43:49;;;;;;;3.40;1.80;;;4.70;95.60;;;;;;5098355;28;20780;-45
2022/11/23 00:46:16;;;;;;;4.80;2.20;;;4.70;95.70;;;;;;5080612;28;20580;-43
2022/11/23 00:48:43;;;;;;;3.33;1.90;;;4.70;95.80;;;;;;5098164;28;20181;-44
2022/11/23 00:51:11;;;;;;;3.67;2.27;;;4.70;95.90;;;;;;5098479;28;20426;-43
2022/11/23 00:53:37;;;;;;;5.00;1.90;;;4.70;95.90;;;;;;5079825;28;20462;-45
2022/11/23 00:56:03;;;;;;;3.20;1.73;;;4.70;96.00;;;;;;5080529;28;20472;-44
2022/11/23 00:58:29;;;;;;;6.07;2.20;;;4.70;96.00;;;;;;5098038;28;20419;-45
2022/11/23 01:01:01;;;;;;;2.93;2.17;;;4.70;96.10;;;;;;5097792;28;20543;-44
2022/11/23 01:03:28;;;;;;;6.40;2.07;;;4.70;96.10;;;;;;5096583;28;20425;-42
2022/11/23 01:05:54;;;;;;;3.83;1.93;;;4.80;96.20;;;;;;5097316;28;20415;-45
2022/11/23 01:08:20;;;;;;;3.83;1.73;;;4.70;96.20;;;;;;5096251;28;20429;-42
2022/11/23 01:10:46;;;;;;;5.20;2.23;;;4.80;96.20;;;;;;5096713;28;20261;-44
2022/11/23 01:13:11;;;;;;;2.63;2.00;;;4.80;96.30;;;;;;5096230;28;20188;-42
2022/11/23 01:15:37;;;;;;;7.37;1.93;;;4.80;96.20;;;;;;5096282;28;20760;-44
2022/11/23 01:18:03;;;;;;;3.33;2.67;;;4.80;96.20;;;;;;5096029;28;20546;-44
2022/11/23 01:20:28;;;;;;;3.00;1.77;;;4.80;96.20;;;;;;5096534;28;20277;-43
2022/11/23 01:22:54;;;;;;;5.10;2.33;;;4.80;96.20;;;;;;5096003;28;20268;-42
2022/11/23 01:25:19;;;;;;;3.70;1.73;;;4.80;96.20;;;;;;5096235;28;20172;-43
2022/11/23 01:27:45;;;;;;;4.47;2.13;;;4.90;96.30;;;;;;5096198;28;20182;-43
2022/11/23 01:30:11;;;;;;;3.63;2.10;;;4.90;96.30;;;;;;5079515;28;20575;-42
2022/11/23 01:32:36;;;;;;;2.63;1.67;;;4.90;96.30;;;;;;5097047;28;20185;-44
2022/11/23 01:35:02;;;;;;;2.70;1.70;;;4.90;96.30;;;;;;5096717;28;20488;-42
2022/11/23 01:37:28;;;;;;;4.40;1.60;;;4.90;96.30;;;;;;5079420;28;20188;-44
2022/11/23 01:39:54;;;;;;;4.27;1.80;;;4.90;96.30;;;;;;5097403;28;20220;-44
2022/11/23 01:42:19;;;;;;;3.67;2.07;;;4.90;96.30;;;;;;5097304;28;20518;-44
2022/11/23 01:44:45;;;;;;;3.60;1.90;;;4.90;96.30;;;;;;5097202;28;20245;-44
2022/11/23 01:47:11;;;;;;;2.80;1.50;;;4.90;96.30;;;;;;5097502;28;20329;-44
2022/11/23 01:49:42;;;;;;;3.83;2.10;;;4.90;96.30;;;;;;5097458;28;20264;-44
2022/11/23 01:52:23;;;;;;;3.50;1.53;;;4.90;96.30;;;;;;5079552;28;20189;-42
2022/11/23 01:54:54;;;;;;;4.23;2.03;;;4.90;96.60;;;;;;5097376;28;20758;-42
2022/11/23 01:57:29;;;;;;;4.20;1.70;;;4.90;96.20;;;;;;5097494;28;20719;-42
2022/11/23 01:59:55;;;;;;;3.57;1.87;;;4.90;96.10;;;;;;5079469;28;20497;-42
2022/11/23 02:02:21;;;;;;;5.67;3.40;;;4.80;96.10;;;;;;5079142;28;20426;-44
2022/11/23 02:04:50;;;;;;;3.43;1.80;;;4.80;96.10;;;;;;5099310;28;20551;-45
2022/11/23 02:07:16;;;;;;;7.50;4.10;;;4.80;96.10;;;;;;5100868;28;20169;-42
2022/11/23 02:09:42;;;;;;;2.10;1.83;;;4.80;96.10;;;;;;5083540;28;20426;-47
2022/11/23 02:12:12;;;;;;;4.13;1.80;;;4.80;96.00;;;;;;5100428;28;20779;-42
2022/11/23 02:14:37;;;;;;;4.93;1.90;;;4.70;96.00;;;;;;5100476;28;20744;-42
2022/11/23 02:17:04;;;;;;;4.03;1.77;;;4.70;96.00;;;;;;5100136;28;20761;-42
2022/11/23 02:19:46;;;;;;;4.90;2.00;;;4.70;96.10;;;;;;5082872;28;20304;-45
2022/11/23 02:22:19;;;;;;;2.97;2.10;;;4.60;96.00;;;;;;5100789;28;20833;-44
2022/11/23 02:24:48;;;;;;;6.20;2.20;;;4.60;96.00;;;;;;5082377;28;20421;-43
2022/11/23 02:27:14;;;;;;;6.33;2.10;;;4.60;95.90;;;;;;5082784;28;20500;-44
2022/11/23 02:30:17;;;;;;;2.30;1.60;;;4.60;95.90;;;;;;5083085;28;20474;-44
2022/11/23 02:32:43;;;;;;;4.33;1.63;;;4.60;95.90;;;;;;5100677;28;20458;-44
2022/11/23 02:35:10;;;;;;;4.37;1.93;;;4.60;95.80;;;;;;5082418;28;20867;-41
2022/11/23 02:37:36;;;;;;;3.40;1.80;;;4.50;95.70;;;;;;5101023;28;20260;-43
2022/11/23 02:40:06;;;;;;;2.90;1.73;;;4.50;95.70;;;;;;5083012;28;20739;-45
2022/11/23 02:42:32;;;;;;;3.77;2.00;;;4.50;95.70;;;;;;5082930;28;20426;-42
2022/11/23 02:44:58;;;;;;;6.13;2.67;;;4.50;95.60;;;;;;5082257;28;20411;-45
2022/11/23 02:47:23;;;;;;;5.47;2.17;;;4.40;95.60;;;;;;5100376;28;20181;-45
2022/11/23 02:49:49;;;;;;;5.00;2.30;;;4.40;95.60;;;;;;5100826;28;20191;-43
2022/11/23 02:52:15;;;;;;;3.73;2.60;;;4.40;95.50;;;;;;5100475;28;20247;-43
2022/11/23 02:54:41;;;;;;;4.17;2.20;;;4.40;95.50;;;;;;5100776;28;20249;-42
2022/11/23 02:57:07;;;;;;;3.47;2.10;;;4.40;95.50;;;;;;5100326;28;20433;-44
2022/11/23 02:59:33;;;;;;;4.50;2.90;;;4.30;95.40;;;;;;5100777;28;20213;-42
2022/11/23 03:01:59;;;;;;;2.80;1.90;;;4.30;95.40;;;;;;5100367;28;20415;-45
2022/11/23 03:04:25;;;;;;;5.40;2.50;;;4.30;95.50;;;;;;5082481;28;20827;-46
2022/11/23 03:06:51;;;;;;;3.70;1.90;;;4.30;95.40;;;;;;5099975;28;20513;-42
2022/11/23 03:09:16;;;;;;;6.73;2.73;;;4.30;95.50;;;;;;5100128;28;20272;-43
2022/11/23 03:11:42;;;;;;;4.17;2.50;;;4.30;95.50;;;;;;5100479;28;20177;-43
2022/11/23 03:14:08;;;;;;;5.37;2.43;;;4.20;95.50;;;;;;5099862;28;20451;-44
2022/11/23 03:16:33;;;;;;;6.73;2.10;;;4.30;95.60;;;;;;5100216;28;20200;-44
2022/11/23 03:18:59;;;;;;;6.23;2.37;;;4.20;95.50;;;;;;5099434;28;20173;-42
2022/11/23 03:21:25;;;;;;;8.40;2.40;;;4.20;95.50;;;;;;5100346;28;20185;-42
2022/11/23 03:23:50;;;;;;;2.80;1.73;;;4.20;95.40;;;;;;5100327;28;20181;-46
2022/11/23 03:26:16;;;;;;;4.17;2.30;;;4.20;95.50;;;;;;5099911;28;20180;-42
2022/11/23 03:28:42;;;;;;;4.40;2.70;;;4.10;95.40;;;;;;5100400;28;20203;-41
2022/11/23 03:31:07;;;;;;;2.70;2.20;;;4.20;95.50;;;;;;5099697;28;20222;-41
2022/11/23 03:33:33;;;;;;;4.33;1.83;;;4.10;95.40;;;;;;5098189;28;20177;-43
2022/11/23 03:35:59;;;;;;;4.50;2.53;;;4.10;95.50;;;;;;5096766;28;20417;-42
2022/11/23 03:38:25;;;;;;;6.57;2.47;;;4.10;95.80;;;;;;5099497;28;20573;-44
2022/11/23 03:40:50;;;;;;;4.30;2.23;;;4.10;95.60;;;;;;5099634;28;20607;-41
2022/11/23 03:43:16;;;;;;;4.30;2.20;;;4.10;95.70;;;;;;5099417;28;20173;-42
2022/11/23 03:45:42;;;;;;;3.47;2.53;;;4.10;95.70;;;;;;5099618;28;20181;-45
2022/11/23 03:48:09;;;;;;;3.73;2.23;;;4.10;95.80;;;;;;5099231;28;20427;-41
2022/11/23 03:50:34;;;;;;;3.07;2.53;;;4.00;95.80;;;;;;5099443;28;20169;-43
2022/11/23 03:53:00;;;;;;;2.43;1.90;;;4.00;95.80;;;;;;5099321;28;20509;-42
2022/11/23 03:55:25;;;;;;;4.13;1.90;;;4.10;95.90;;;;;;5099170;28;20238;-43
2022/11/23 03:57:54;;;;;;;2.37;2.00;;;4.10;95.90;;;;;;5099046;28;20203;-45
2022/11/23 04:00:19;;;;;;;7.47;2.80;;;4.10;95.90;;;;;;5099192;28;20196;-43
2022/11/23 04:02:45;;;;;;;2.20;1.60;;;4.10;95.90;;;;;;5099277;28;20427;-43
2022/11/23 04:05:10;;;;;;;6.60;1.77;;;4.10;95.90;;;;;;5099145;28;20183;-42
2022/11/23 04:07:36;;;;;;;3.63;2.10;;;4.10;95.90;;;;;;5098420;28;20201;-42
2022/11/23 04:10:02;;;;;;;4.30;1.63;;;4.20;96.10;;;;;;5097964;28;20177;-45
2022/11/23 04:12:28;;;;;;;4.30;1.97;;;4.20;96.10;;;;;;5097694;28;20506;-41
2022/11/23 04:14:53;;;;;;;2.67;1.60;;;4.30;96.20;;;;;;5097230;28;20415;-44
2022/11/23 04:17:19;;;;;;;2.77;1.73;;;4.30;96.20;;;;;;5097227;28;20225;-45
2022/11/23 04:19:44;;;;;;;4.67;1.90;;;4.30;96.60;;;;;;5097532;28;20204;-48
2022/11/23 04:22:10;;;;;;;6.13;1.87;;;4.30;96.30;;;;;;5098834;28;20181;-41
2022/11/23 04:24:36;;;;;;;2.17;1.57;;;4.40;96.40;;;;;;5099107;28;20169;-42
2022/11/23 04:27:01;;;;;;;4.23;1.80;;;4.40;96.50;;;;;;5097931;28;20177;-43
2022/11/23 04:29:27;;;;;;;6.07;1.77;;;4.40;96.50;;;;;;5098311;28;20185;-45
2022/11/23 04:31:52;;;;;;;4.43;2.10;;;4.50;96.60;;;;;;5098462;28;20278;-43
2022/11/23 04:34:18;;;;;;;2.77;1.70;;;4.50;96.70;;;;;;5097598;28;20566;-44
2022/11/23 04:36:44;;;;;;;3.77;1.50;;;4.60;96.90;;;;;;5098160;28;20255;-43
2022/11/23 04:39:11;;;;;;;4.93;2.40;;;4.60;96.90;;;;;;5097352;28;20517;-42
2022/11/23 04:41:37;;;;;;;2.87;1.70;;;4.60;97.00;;;;;;5098152;28;20172;-43
2022/11/23 04:44:03;;;;;;;4.30;1.70;;;4.60;96.90;;;;;;5097166;28;20435;-44
2022/11/23 04:46:28;;;;;;;2.73;1.70;;;4.70;97.00;;;;;;5096412;28;20161;-42
2022/11/23 04:48:54;;;;;;;4.50;1.90;;;4.70;97.00;;;;;;5097221;28;20185;-42
2022/11/23 04:51:19;;;;;;;3.30;2.20;;;4.70;97.00;;;;;;5077546;28;20177;-41
2022/11/23 04:53:45;;;;;;;6.30;2.30;;;4.70;97.00;;;;;;5096446;28;20284;-42
2022/11/23 04:56:10;;;;;;;2.57;1.63;;;4.70;97.00;;;;;;5097710;28;20204;-43
2022/11/23 04:58:36;;;;;;;3.07;2.53;;;4.70;97.00;;;;;;5098345;28;20546;-44
2022/11/23 05:01:03;;;;;;;5.10;2.13;;;4.70;96.90;;;;;;5096392;28;20240;-43
2022/11/23 05:03:29;;;;;;;4.80;2.00;;;4.70;96.90;;;;;;5093019;28;20230;-44
2022/11/23 05:05:57;;;;;;;2.50;1.30;;;4.70;96.80;;;;;;5093107;28;20454;-42
2022/11/23 05:08:24;;;;;;;4.17;1.47;;;4.70;96.70;;;;;;5075898;28;20446;-42
2022/11/23 05:10:49;;;;;;;2.40;1.60;;;4.70;96.70;;;;;;5091845;28;20446;-42
2022/11/23 05:13:15;;;;;;;3.37;1.40;;;4.70;96.70;;;;;;5073400;28;20462;-43
2022/11/23 05:15:40;;;;;;;5.07;2.50;;;4.70;96.60;;;;;;5092309;28;20168;-43
2022/11/23 05:18:07;;;;;;;2.70;1.80;;;4.70;96.60;;;;;;5093844;28;20251;-43
2022/11/23 05:20:33;;;;;;;3.60;2.10;;;4.70;96.60;;;;;;5094924;28;20226;-42
2022/11/23 05:22:59;;;;;;;4.43;1.67;;;4.70;96.60;;;;;;5095501;28;20431;-42
2022/11/23 05:25:25;;;;;;;2.50;1.60;;;4.70;96.70;;;;;;5094689;28;20468;-41
2022/11/23 05:27:51;;;;;;;3.90;1.63;;;4.80;96.70;;;;;;5094980;28;20180;-42
2022/11/23 05:30:17;;;;;;;2.87;1.60;;;4.80;96.70;;;;;;5077482;28;20573;-42
2022/11/23 05:32:43;;;;;;;3.17;1.77;;;4.80;96.70;;;;;;5093134;28;20492;-42
2022/11/23 05:35:09;;;;;;;3.90;1.60;;;4.80;96.70;;;;;;5092864;28;20411;-42
2022/11/23 05:37:35;;;;;;;3.50;1.47;;;4.80;96.80;;;;;;5093427;28;20180;-45
2022/11/23 05:40:01;;;;;;;6.20;2.30;;;4.90;96.80;;;;;;5092519;28;20453;-43
2022/11/23 05:42:26;;;;;;;2.63;1.40;;;4.90;96.80;;;;;;5093649;28;20545;-44
2022/11/23 05:44:52;;;;;;;3.30;2.10;;;4.90;96.80;;;;;;5093821;28;20415;-42
2022/11/23 05:47:17;;;;;;;4.03;1.83;;;4.90;96.80;;;;;;5095693;28;20183;-42
2022/11/23 05:49:43;;;;;;;4.70;2.00;;;5.00;96.80;;;;;;5095439;28;20184;-45
2022/11/23 05:52:09;;;;;;;3.30;1.60;;;5.00;96.80;;;;;;5093047;28;20455;-44
2022/11/23 05:54:34;;;;;;;6.07;1.83;;;5.00;96.80;;;;;;5093820;28;20373;-43
2022/11/23 05:57:01;;;;;;;3.83;1.70;;;5.00;96.80;;;;;;5094210;28;20173;-44
2022/11/23 05:59:27;;;;;;;2.53;1.67;;;5.00;96.80;;;;;;5093572;28;20561;-45
2022/11/23 06:01:52;;;;;;;5.17;1.80;;;5.00;96.80;;;;;;5094172;28;20514;-45
2022/11/23 06:04:18;;;;;;;3.87;1.80;;;5.10;96.80;;;;;;5092939;28;20165;-42
2022/11/23 06:06:44;;;;;;;6.80;2.17;;;5.10;96.80;;;;;;5095649;28;20268;-45
2022/11/23 06:09:10;;;;;;;3.03;1.63;;;5.10;96.80;;;;;;5095765;28;20283;-45
2022/11/23 06:11:36;;;;;;;2.90;1.87;;;5.10;96.80;;;;;;5102422;28;20532;-43
2022/11/23 06:14:01;;;;;;;4.80;2.33;;;5.10;96.80;;;;;;5079528;28;20184;-44
2022/11/23 06:16:27;;;;;;;5.80;2.57;;;5.10;96.80;;;;;;5095011;28;20334;-44
2022/11/23 06:18:53;;;;;;;3.60;2.23;;;5.10;96.80;;;;;;5094710;28;20323;-45
2022/11/23 06:21:18;;;;;;;6.67;2.60;;;5.10;96.80;;;;;;5110168;28;20308;-43
2022/11/23 06:23:46;;;;;;;4.47;3.07;;;5.10;96.90;;;;;;5092326;28;20251;-43
2022/11/23 06:26:11;;;;;;;3.97;2.63;;;5.10;96.90;;;;;;5108387;28;20458;-44
2022/11/23 06:28:37;;;;;;;4.83;2.63;;;5.10;96.80;;;;;;5108171;28;20422;-45
2022/11/23 06:31:05;;;;;;;5.07;2.93;;;5.10;96.80;;;;;;5110700;28;20176;-45
2022/11/23 06:33:34;;;;;;;4.40;2.90;;;5.10;96.80;;;;;;5093960;28;20271;-47
2022/11/23 06:36:06;;;;;;;5.73;3.10;;;5.10;96.80;;;;;;5112501;28;20406;-49
2022/11/23 06:38:32;;;;;;;4.23;2.27;;;5.10;96.80;;;;;;5109521;28;20471;-43
2022/11/23 06:40:59;;;;;;;4.40;2.90;;;5.10;96.80;;;;;;5110527;28;20778;-41
2022/11/23 06:43:25;;;;;;;4.93;3.30;;;5.10;96.80;;;;;;5112305;28;20582;-42
2022/11/23 06:45:51;;;;;;;6.30;4.00;;;5.10;96.70;;;;;;5096412;28;20402;-42
2022/11/23 06:48:16;;;;;;;4.93;3.43;;;5.10;96.70;;;;;;5112002;28;20425;-45
2022/11/23 06:50:42;;;;;;;6.20;4.03;;;5.10;96.70;;;;;;5113037;28;20729;-45
2022/11/23 06:53:11;;;;;;;6.60;4.27;;;5.10;96.70;;;;;;5114411;28;20176;-43
2022/11/23 06:55:37;;;;;;;6.33;4.80;;;5.10;96.70;;;;;;5113090;28;20210;-41
2022/11/23 06:58:02;;;;;;;5.70;3.37;;;5.10;96.60;;;;;;5114866;28;20426;-41
2022/11/23 07:00:28;;;;;;;8.13;3.20;;;5.20;96.60;;;;;;5113436;28;20454;-42
2022/11/23 07:02:55;;;;;;;5.20;3.13;;;5.20;96.60;;;;;;5113963;28;20191;-43
2022/11/23 07:05:21;;;;;;;4.70;2.77;;;5.20;96.50;;;;;;5113814;28;20226;-47
2022/11/23 07:07:47;;;;;;;4.63;3.10;;;5.30;96.40;;;;;;5114352;28;20444;-42
2022/11/23 07:10:13;;;;;;;4.70;2.80;;;5.30;96.30;;;;;;5115227;28;20413;-44
2022/11/23 07:12:39;;;;;;;3.80;2.47;;;5.40;96.20;;;;;;5114746;28;20182;-42
2022/11/23 07:15:06;;;;;;;5.70;3.20;;;5.40;96.10;;;;;;5115787;28;20414;-45
2022/11/23 07:17:32;;;;;;;3.30;2.53;;;5.50;96.10;;;;;;5117623;28;20626;-43
2022/11/23 07:19:57;;;;;;;5.60;3.10;;;5.60;96.00;;;;;;5116757;28;21185;-41
2022/11/23 07:22:23;;;;;;;4.20;2.60;;;5.80;95.90;;;;;;5116142;28;20468;-46
2022/11/23 07:24:48;;;;;;;4.63;2.33;;;6.00;95.70;;;;;;5115769;28;20168;-43
2022/11/23 07:27:16;;;;;;;3.40;2.77;;;6.20;95.40;;;;;;5115133;28;20431;-46
2022/11/23 07:29:41;;;;;;;4.70;2.07;;;6.50;95.10;;;;;;5116386;28;20190;-42
2022/11/23 07:32:07;;;;;;;4.13;2.03;;;6.80;94.60;;;;;;5115949;28;20507;-43
2022/11/23 07:34:33;;;;;;;3.23;2.20;;;7.10;94.20;;;;;;5116060;28;20445;-45
2022/11/23 07:36:58;;;;;;;4.90;2.40;;;7.50;93.70;;;;;;5116027;28;20623;-44
2022/11/23 07:39:24;;;;;;;3.03;2.07;;;7.90;93.20;;;;;;5117617;28;20182;-43
2022/11/23 07:41:49;;;;;;;4.53;2.63;;;8.30;92.60;;;;;;5117172;28;20168;-46
2022/11/23 07:44:15;;;;;;;5.00;2.63;;;8.70;92.10;;;;;;5115575;28;20175;-43
2022/11/23 07:46:41;;;;;;;8.90;3.10;;;9.20;91.40;;;;;;5116134;28;20178;-47
2022/11/23 07:49:06;;;;;;;4.33;2.60;;;9.70;90.70;;;;;;5114761;28;20274;-48
2022/11/23 07:51:32;;;;;;;6.43;2.70;;;10.20;88.80;;;;;;5115990;28;20640;-45
2022/11/23 07:53:58;;;;;;;3.77;2.37;;;10.70;87.20;;;;;;5113721;28;20508;-42
2022/11/23 07:56:24;;;;;;;4.67;2.90;;;11.20;85.60;;;;;;5114541;28;20402;-44
2022/11/23 07:58:50;;;;;;;6.43;3.27;;;11.70;83.80;;;;;;5115161;28;20179;-44
2022/11/23 08:01:17;;;;;;;4.80;2.90;;;12.30;82.10;;;;;;5114327;28;20202;-46
2022/11/23 08:03:44;;;;;;;5.83;2.37;;;12.70;80.30;;;;;;5115666;28;20261;-44
2022/11/23 08:06:10;;;;;;;5.13;2.63;;;13.30;78.60;;;;;;5114611;28;20410;-45
2022/11/23 08:08:37;;;;;;;5.57;2.93;;;13.90;76.90;;;;;;5113856;28;20446;-45
2022/11/23 08:11:08;;;;;;;4.13;3.03;;;14.40;75.00;;;;;;5115563;28;20497;-45
2022/11/23 08:13:34;;;;;;;2.97;2.37;;;14.90;72.90;;;;;;5116032;28;20753;-44
2022/11/23 08:15:59;;;;;;;3.67;2.00;;;15.50;70.60;;;;;;5095168;28;20418;-45
2022/11/23 08:18:26;;;;;;;4.70;2.10;;;16.00;68.50;;;;;;5114372;28;20841;-43
2022/11/23 08:20:52;;;;;;;1.90;1.70;;;16.60;66.00;;;;;;5113904;28;20571;-43
2022/11/23 08:23:18;;;;;;;5.03;2.10;;;17.20;63.70;;;;;;5115135;28;20418;-45
2022/11/23 08:25:44;;;;;;;2.87;1.40;;;17.80;60.90;;;;;;5113848;28;21068;-43
2022/11/23 08:28:10;;;;;;;2.80;1.70;;;18.50;58.80;;;;;;5115972;28;20460;-44
2022/11/23 08:30:36;;;;;;;2.70;1.40;;;19.00;56.60;;;;;;5116089;28;20182;-44
2022/11/23 08:33:06;;;;;;;4.17;1.70;;;19.70;54.90;;;;;;5115248;28;20519;-47
2022/11/23 08:35:33;;;;;;;3.20;1.53;;;20.40;52.80;;;;;;5116216;28;20424;-41
2022/11/23 08:37:59;;;;;;;3.27;1.90;;;21.10;51.30;;;;;;5117321;28;20428;-48
2022/11/23 08:40:24;;;;;;;3.70;1.60;;;21.80;49.40;;;;;;5099814;28;20978;-43
2022/11/23 08:42:50;;;;;;;2.60;1.63;;;22.50;47.70;;;;;;5117529;28;20183;-44
2022/11/23 08:45:15;;;;;;;3.30;1.57;;;23.30;46.30;;;;;;5118217;28;20175;-43
2022/11/23 08:47:41;;;;;;;3.00;1.60;;;24.00;44.80;;;;;;5099949;28;20257;-44
2022/11/23 08:50:07;;;;;;;3.10;1.80;;;24.70;43.60;;;;;;5116947;28;20184;-44
2022/11/23 08:52:33;;;;;;;2.57;1.40;;;25.40;42.00;;;;;;5116520;28;20168;-45
2022/11/23 08:55:00;;;;;;;3.60;1.67;;;26.20;40.90;;;;;;5116247;28;20508;-46
2022/11/23 08:57:26;;;;;;;2.90;1.40;;;26.80;39.40;;;;;;5115882;28;20175;-43
2022/11/23 08:59:51;;;;;;;2.50;1.80;;;27.40;38.40;;;;;;5115685;28;21085;-44
2022/11/23 09:02:17;;;;;;;5.20;2.47;;;28.10;36.90;;;;;;5114049;28;20460;-42
2022/11/23 09:04:42;;;;;;;3.87;2.20;;;28.70;35.80;;;;;;5114591;28;20469;-42
2022/11/23 09:07:08;;;;;;;6.13;1.87;;;29.20;34.30;;;;;;5115257;28;20256;-43
2022/11/23 09:09:34;;;;;;;2.63;1.80;;;29.70;33.90;;;;;;5114508;28;20179;-43
2022/11/23 09:11:59;;;;;;;3.50;2.33;;;30.30;32.90;;;;;;5116199;28;20169;-44
2022/11/23 09:14:26;;;;;;;2.90;1.63;;;30.80;31.90;;;;;;5116660;28;20272;-46
2022/11/23 09:16:52;;;;;;;3.10;2.13;;;31.30;31.40;;;;;;5117777;28;20177;-42
2022/11/23 09:19:18;;;;;;;3.80;2.20;;;31.80;30.80;;;;;;5117554;28;20399;-42
2022/11/23 09:21:44;;;;;;;2.77;2.10;;;32.40;30.10;;;;;;5116568;28;20473;-44
2022/11/23 09:24:12;;;;;;;3.80;2.00;;;32.60;29.50;;;;;;5115085;28;20180;-42
2022/11/23 09:26:39;;;;;;;3.00;2.10;;;32.80;29.00;;;;;;5114837;28;20193;-45
2022/11/23 09:29:05;;;;;;;3.00;2.00;;;33.30;29.10;;;;;;5114968;28;20390;-43
2022/11/23 09:31:31;;;;;;;2.60;1.57;;;33.70;28.20;;;;;;5114960;28;20462;-43
2022/11/23 09:33:57;;;;;;;3.90;2.07;;;33.90;27.70;;;;;;5095821;28;20526;-44
2022/11/23 09:36:22;;;;;;;4.50;2.40;;;33.80;27.40;;;;;;5115834;28;20183;-46
2022/11/23 09:38:49;;;;;;;2.90;2.13;;;34.10;27.00;;;;;;5116225;28;20562;-44
2022/11/23 09:41:39;;;;;;;3.90;2.30;;;34.10;26.70;;;;;;5116876;28;20300;-43
2022/11/23 09:44:24;;;;;;;3.87;1.90;;;34.30;26.50;;;;;;5116470;28;20417;-43
2022/11/23 09:47:19;;;;;;;3.53;2.10;;;34.50;26.20;;;;;;5114607;28;20407;-47
2022/11/23 09:49:51;;;;;;;4.23;2.03;;;34.70;25.80;;;;;;5095955;28;20417;-43
2022/11/23 09:52:18;;;;;;;2.97;2.10;;;34.70;25.80;;;;;;5113858;28;20422;-43
2022/11/23 09:54:45;;;;;;;2.70;1.90;;;35.20;25.60;;;;;;5095771;28;20834;-43
2022/11/23 09:57:18;;;;;;;3.40;1.90;;;35.40;25.10;;;;;;5096461;28;20437;-43
2022/11/23 09:59:49;;;;;;;4.37;2.43;;;35.60;24.90;;;;;;5097503;28;20461;-42
2022/11/23 10:02:23;;;;;;;3.83;3.30;;;35.70;24.80;;;;;;5097889;28;20456;-43
2022/11/23 10:04:51;;;;;;;6.67;4.40;;;35.70;24.60;;;;;;5114888;28;20485;-44
2022/11/23 10:07:21;;;;;;;4.20;3.80;;;35.60;24.70;;;;;;5115166;28;20826;-43
2022/11/23 10:09:53;;;;;;;4.33;3.60;;;35.30;24.90;;;;;;5096988;28;20452;-46
2022/11/23 10:12:47;;;;;;;4.43;3.43;;;35.20;24.80;;;;;;5096368;28;20451;-47
2022/11/23 10:15:18;;;;;;;3.70;2.63;;;35.10;24.90;;;;;;5114488;28;20497;-48
2022/11/23 10:18:17;;;;;;;4.30;3.30;;;35.00;24.80;;;;;;5098596;28;20963;-45
2022/11/23 10:21:05;;;;;;;4.27;3.00;;;34.70;24.70;;;;;;5115107;28;20851;-44
2022/11/23 10:23:55;;;;;;;3.77;2.70;;;34.30;24.90;;;;;;5115935;28;20413;-45
2022/11/23 10:26:28;;;;;;;4.03;3.10;;;34.00;25.10;;;;;;5118268;28;20832;-46
2022/11/23 10:28:54;;;;;;;5.10;4.33;;;33.80;25.00;;;;;;5119116;28;20395;-44
2022/11/23 10:31:22;;;;;;;4.57;3.90;;;33.70;24.90;;;;;;5101429;28;20429;-45
2022/11/23 10:33:55;;;;;;;6.00;4.20;;;33.60;25.00;;;;;;5118824;28;20425;-46
2022/11/23 10:36:20;;;;;;;5.07;3.90;;;33.30;24.90;;;;;;5100832;28;20496;-44
2022/11/23 10:38:59;;;;;;;5.83;4.50;;;33.20;25.20;;;;;;5118823;28;20913;-43
2022/11/23 10:41:25;;;;;;;5.67;4.33;;;33.30;24.80;;;;;;5099795;28;20230;-46
2022/11/23 10:44:16;;;;;;;5.20;4.17;;;33.40;24.70;;;;;;5117138;28;20812;-44
2022/11/23 10:46:42;;;;;;;5.30;4.10;;;33.70;24.90;;;;;;5106002;28;20405;-47
2022/11/23 10:49:29;;;;;;;5.60;4.33;;;34.40;24.70;;;;;;5104253;28;20442;-47
2022/11/23 10:52:23;;;;;;;4.60;3.77;;;35.10;24.30;;;;;;5081703;28;20455;-45
2022/11/23 10:54:53;;;;;;;5.70;3.60;;;35.60;24.00;;;;;;5098846;28;20838;-42
2022/11/23 10:57:37;;;;;;;3.70;3.00;;;37.00;24.00;;;;;;5097919;28;20508;-45
2022/11/23 11:00:14;;;;;;;5.00;3.40;;;38.00;23.60;;;;;;5098524;28;20460;-47
2022/11/23 11:02:40;;;;;;;3.37;2.67;;;38.40;23.10;;;;;;5098735;28;20435;-45
2022/11/23 11:05:11;;;;;;;6.50;3.30;;;38.90;23.10;;;;;;5098774;28;20890;-42
2022/11/23 11:07:38;;;;;;;4.87;3.10;;;39.20;23.10;;;;;;5096895;28;20564;-42
2022/11/23 11:10:04;;;;;;;4.17;2.83;;;39.50;23.20;;;;;;5097724;28;20438;-47
2022/11/23 11:12:33;;;;;;;2.90;2.33;;;39.80;22.90;;;;;;5074846;28;20460;-45
2022/11/23 11:15:12;;;;;;;4.70;2.90;;;39.80;22.80;;;;;;5094095;28;20412;-41
2022/11/23 11:17:40;;;;;;;3.47;2.43;;;39.90;23.00;;;;;;5077234;28;20532;-44
2022/11/23 11:20:24;;;;;;;3.03;2.23;;;40.00;23.40;;;;;;5095716;28;20467;-45
2022/11/23 11:22:49;;;;;;;3.20;2.10;;;40.10;23.90;;;;;;5095344;28;20533;-45
2022/11/23 11:25:41;;;;;;;3.33;2.30;;;40.00;24.00;;;;;;5092909;28;20831;-41
2022/11/23 11:28:32;;;;;;;4.47;1.80;;;40.50;24.50;;;;;;5071418;28;20201;-43
2022/11/23 11:31:06;;;;;;;3.00;1.80;;;40.60;24.30;;;;;;5093974;28;20442;-41
2022/11/23 11:33:41;;;;;;;3.50;1.83;;;40.70;22.60;;;;;;5093248;28;20708;-46
2022/11/23 11:36:07;;;;;;;6.60;1.87;;;40.40;22.40;;;;;;5074880;28;20767;-41
2022/11/23 11:38:35;;;;;;;2.97;1.90;;;40.20;23.30;;;;;;5073245;28;20459;-44
2022/11/23 11:41:09;;;;;;;2.60;1.77;;;40.80;23.60;;;;;;5087557;28;20493;-41
2022/11/23 11:43:43;;;;;;;3.73;2.20;;;41.10;23.50;;;;;;5107353;28;20431;-42
2022/11/23 11:46:33;;;;;;;3.17;2.10;;;41.20;23.50;;;;;;5085439;28;20464;-42
2022/11/23 11:49:06;;;;;;;2.47;1.90;;;41.00;23.10;;;;;;5106174;28;20931;-43
2022/11/23 11:51:40;;;;;;;2.70;2.13;;;41.20;23.00;;;;;;5115142;28;20446;-46
2022/11/23 11:54:32;;;;;;;4.00;2.00;;;41.00;23.20;;;;;;5116363;28;20431;-44
2022/11/23 11:57:08;;;;;;;3.57;2.27;;;41.20;23.50;;;;;;5106116;28;20464;-43
2022/11/23 11:59:43;;;;;;;2.90;1.90;;;41.30;22.40;;;;;;5079322;28;20589;-45
2022/11/23 12:02:41;;;;;;;3.60;1.83;;;40.90;22.20;;;;;;5098335;28;20423;-45
2022/11/23 12:05:25;;;;;;;4.23;2.10;;;40.60;22.50;;;;;;5094500;28;20443;-46
2022/11/23 12:08:13;;;;;;;2.63;1.90;;;40.90;22.60;;;;;;5097590;28;20709;-42
2022/11/23 12:10:58;;;;;;;2.77;2.30;;;40.90;22.90;;;;;;5094918;28;20493;-43
2022/11/23 12:13:31;;;;;;;3.07;2.00;;;40.70;22.70;;;;;;5096383;28;20489;-48
2022/11/23 12:16:34;;;;;;;2.83;2.10;;;40.60;22.60;;;;;;5077817;28;20412;-45
2022/11/23 12:19:16;;;;;;;2.47;2.00;;;40.20;23.20;;;;;;5096827;28;20583;-46
2022/11/23 12:21:48;;;;;;;3.60;1.70;;;40.50;22.40;;;;;;5079279;28;20477;-44
2022/11/23 12:24:38;;;;;;;4.10;2.30;;;40.50;22.60;;;;;;5097419;28;20698;-42
2022/11/23 12:27:23;;;;;;;4.50;2.20;;;40.40;22.90;;;;;;5096100;28;21023;-43
2022/11/23 12:29:58;;;;;;;3.53;2.50;;;40.30;23.20;;;;;;5093838;28;20715;-42
2022/11/23 12:32:55;;;;;;;2.93;2.17;;;40.20;22.80;;;;;;5092787;28;20423;-43
2022/11/23 12:35:30;;;;;;;2.60;2.07;;;40.20;22.30;;;;;;5094756;28;20415;-42
2022/11/23 12:38:13;;;;;;;2.73;2.43;;;40.20;22.90;;;;;;5097771;28;20430;-43
2022/11/23 12:41:08;;;;;;;2.93;1.93;;;40.10;22.80;;;;;;5096096;28;20475;-44
2022/11/23 12:44:00;;;;;;;4.17;2.43;;;39.90;22.00;;;;;;5005501;28;20435;-42
2022/11/23 12:46:45;;;;;;;3.33;2.07;;;39.90;22.90;;;;;;5096951;28;20833;-43
2022/11/23 12:49:30;;;;;;;2.87;2.03;;;39.90;23.00;;;;;;5090649;28;20517;-42
2022/11/23 12:52:02;;;;;;;2.63;1.90;;;39.50;23.10;;;;;;5098799;28;20931;-42
2022/11/23 12:54:50;;;;;;;2.93;2.30;;;39.70;22.90;;;;;;5077408;28;20822;-44
2022/11/23 12:57:24;;;;;;;2.90;1.90;;;39.70;23.10;;;;;;5094206;28;20422;-44
2022/11/23 13:00:01;;;;;;;2.07;1.53;;;39.60;23.50;;;;;;5076831;28;20977;-46
2022/11/23 13:02:57;;;;;;;2.17;1.90;;;39.50;22.90;;;;;;5076724;28;20433;-43